sensor_id;sensor_type;location;lat;lon;timestamp;P1;durP1;ratioP1;P2;durP2;ratioP2
30515;SDS011;17297;54.022;10.760;2022-08-16T00:00:38;6.07;;;5.57;;
30515;SDS011;17297;54.022;10.760;2022-08-16T00:03:07;7.00;;;5.72;;
30515;SDS011;17297;54.022;10.760;2022-08-16T00:05:34;5.82;;;5.15;;
30515;SDS011;17297;54.022;10.760;2022-08-16T00:08:00;6.55;;;5.85;;
30515;SDS011;17297;54.022;10.760;2022-08-16T00:10:27;6.55;;;5.82;;
30515;SDS011;17297;54.022;10.760;2022-08-16T00:12:57;6.82;;;6.07;;
30515;SDS011;17297;54.022;10.760;2022-08-16T00:15:35;6.40;;;5.72;;
30515;SDS011;17297;54.022;10.760;2022-08-16T00:18:03;6.30;;;5.70;;
30515;SDS011;17297;54.022;10.760;2022-08-16T00:20:30;5.57;;;5.07;;
30515;SDS011;17297;54.022;10.760;2022-08-16T00:22:56;5.85;;;5.25;;
30515;SDS011;17297;54.022;10.760;2022-08-16T00:25:22;5.88;;;5.28;;
30515;SDS011;17297;54.022;10.760;2022-08-16T00:27:49;5.85;;;5.25;;
30515;SDS011;17297;54.022;10.760;2022-08-16T00:30:15;5.78;;;5.20;;
30515;SDS011;17297;54.022;10.760;2022-08-16T00:32:43;7.22;;;5.22;;
30515;SDS011;17297;54.022;10.760;2022-08-16T00:35:11;7.35;;;6.65;;
30515;SDS011;17297;54.022;10.760;2022-08-16T00:37:38;6.72;;;5.22;;
30515;SDS011;17297;54.022;10.760;2022-08-16T00:40:04;6.60;;;5.78;;
30515;SDS011;17297;54.022;10.760;2022-08-16T00:42:32;6.75;;;5.75;;
30515;SDS011;17297;54.022;10.760;2022-08-16T00:45:04;6.20;;;5.22;;
30515;SDS011;17297;54.022;10.760;2022-08-16T00:47:54;6.35;;;5.75;;
30515;SDS011;17297;54.022;10.760;2022-08-16T00:50:21;6.82;;;5.75;;
30515;SDS011;17297;54.022;10.760;2022-08-16T00:52:49;6.43;;;4.85;;
30515;SDS011;17297;54.022;10.760;2022-08-16T00:55:15;6.10;;;5.45;;
30515;SDS011;17297;54.022;10.760;2022-08-16T00:57:40;5.40;;;4.55;;
30515;SDS011;17297;54.022;10.760;2022-08-16T01:00:06;5.20;;;4.47;;
30515;SDS011;17297;54.022;10.760;2022-08-16T01:02:36;5.43;;;4.90;;
30515;SDS011;17297;54.022;10.760;2022-08-16T01:05:01;6.68;;;5.68;;
30515;SDS011;17297;54.022;10.760;2022-08-16T01:07:27;6.72;;;5.20;;
30515;SDS011;17297;54.022;10.760;2022-08-16T01:09:53;5.60;;;5.10;;
30515;SDS011;17297;54.022;10.760;2022-08-16T01:12:18;5.13;;;4.63;;
30515;SDS011;17297;54.022;10.760;2022-08-16T01:14:51;5.22;;;4.72;;
30515;SDS011;17297;54.022;10.760;2022-08-16T01:17:21;8.13;;;4.78;;
30515;SDS011;17297;54.022;10.760;2022-08-16T01:19:49;5.68;;;5.15;;
30515;SDS011;17297;54.022;10.760;2022-08-16T01:22:25;4.97;;;4.47;;
30515;SDS011;17297;54.022;10.760;2022-08-16T01:24:59;7.28;;;6.07;;
30515;SDS011;17297;54.022;10.760;2022-08-16T01:27:30;8.43;;;5.20;;
30515;SDS011;17297;54.022;10.760;2022-08-16T01:30:08;6.35;;;5.72;;
30515;SDS011;17297;54.022;10.760;2022-08-16T01:32:35;5.97;;;5.13;;
30515;SDS011;17297;54.022;10.760;2022-08-16T01:35:08;6.63;;;5.22;;
30515;SDS011;17297;54.022;10.760;2022-08-16T01:37:40;6.53;;;5.93;;
30515;SDS011;17297;54.022;10.760;2022-08-16T01:40:08;6.20;;;5.60;;
30515;SDS011;17297;54.022;10.760;2022-08-16T01:42:34;6.35;;;5.75;;
30515;SDS011;17297;54.022;10.760;2022-08-16T01:45:03;6.40;;;5.80;;
30515;SDS011;17297;54.022;10.760;2022-08-16T01:47:29;7.43;;;6.28;;
30515;SDS011;17297;54.022;10.760;2022-08-16T01:49:56;7.15;;;6.22;;
30515;SDS011;17297;54.022;10.760;2022-08-16T01:52:21;8.70;;;6.72;;
30515;SDS011;17297;54.022;10.760;2022-08-16T01:54:59;6.68;;;6.07;;
30515;SDS011;17297;54.022;10.760;2022-08-16T01:57:26;10.13;;;6.75;;
30515;SDS011;17297;54.022;10.760;2022-08-16T01:59:52;8.10;;;6.50;;
30515;SDS011;17297;54.022;10.760;2022-08-16T02:02:18;7.85;;;6.45;;
30515;SDS011;17297;54.022;10.760;2022-08-16T02:04:44;8.57;;;6.60;;
30515;SDS011;17297;54.022;10.760;2022-08-16T02:07:10;8.75;;;6.47;;
30515;SDS011;17297;54.022;10.760;2022-08-16T02:09:38;8.82;;;7.22;;
30515;SDS011;17297;54.022;10.760;2022-08-16T02:12:06;6.85;;;6.13;;
30515;SDS011;17297;54.022;10.760;2022-08-16T02:14:34;7.68;;;6.85;;
30515;SDS011;17297;54.022;10.760;2022-08-16T02:17:02;7.97;;;7.20;;
30515;SDS011;17297;54.022;10.760;2022-08-16T02:19:33;8.05;;;7.22;;
30515;SDS011;17297;54.022;10.760;2022-08-16T02:22:01;8.20;;;6.80;;
30515;SDS011;17297;54.022;10.760;2022-08-16T02:24:28;7.93;;;6.53;;
30515;SDS011;17297;54.022;10.760;2022-08-16T02:26:56;7.60;;;6.80;;
30515;SDS011;17297;54.022;10.760;2022-08-16T02:29:23;8.38;;;6.97;;
30515;SDS011;17297;54.022;10.760;2022-08-16T02:31:49;9.45;;;7.50;;
30515;SDS011;17297;54.022;10.760;2022-08-16T02:34:17;8.25;;;7.45;;
30515;SDS011;17297;54.022;10.760;2022-08-16T02:36:44;9.20;;;7.85;;
30515;SDS011;17297;54.022;10.760;2022-08-16T02:39:11;6.82;;;6.18;;
30515;SDS011;17297;54.022;10.760;2022-08-16T02:41:38;7.95;;;7.15;;
30515;SDS011;17297;54.022;10.760;2022-08-16T02:44:06;9.40;;;8.40;;
30515;SDS011;17297;54.022;10.760;2022-08-16T02:46:33;8.25;;;7.45;;
30515;SDS011;17297;54.022;10.760;2022-08-16T02:49:00;7.90;;;7.10;;
30515;SDS011;17297;54.022;10.760;2022-08-16T02:51:26;8.95;;;8.05;;
30515;SDS011;17297;54.022;10.760;2022-08-16T02:53:52;7.05;;;6.45;;
30515;SDS011;17297;54.022;10.760;2022-08-16T02:56:20;8.85;;;7.03;;
30515;SDS011;17297;54.022;10.760;2022-08-16T02:58:46;9.18;;;8.13;;
30515;SDS011;17297;54.022;10.760;2022-08-16T03:01:18;7.25;;;6.55;;
30515;SDS011;17297;54.022;10.760;2022-08-16T03:03:49;7.45;;;6.75;;
30515;SDS011;17297;54.022;10.760;2022-08-16T03:06:17;8.77;;;7.43;;
30515;SDS011;17297;54.022;10.760;2022-08-16T03:08:45;9.05;;;7.80;;
30515;SDS011;17297;54.022;10.760;2022-08-16T03:11:12;8.50;;;7.68;;
30515;SDS011;17297;54.022;10.760;2022-08-16T03:13:38;9.00;;;7.60;;
30515;SDS011;17297;54.022;10.760;2022-08-16T03:16:07;8.23;;;7.40;;
30515;SDS011;17297;54.022;10.760;2022-08-16T03:18:33;8.57;;;7.05;;
30515;SDS011;17297;54.022;10.760;2022-08-16T03:20:59;9.45;;;8.55;;
30515;SDS011;17297;54.022;10.760;2022-08-16T03:23:25;9.43;;;8.50;;
30515;SDS011;17297;54.022;10.760;2022-08-16T03:25:51;7.90;;;7.10;;
30515;SDS011;17297;54.022;10.760;2022-08-16T03:28:18;8.23;;;7.25;;
30515;SDS011;17297;54.022;10.760;2022-08-16T03:30:46;8.18;;;7.18;;
30515;SDS011;17297;54.022;10.760;2022-08-16T03:33:12;8.57;;;7.03;;
30515;SDS011;17297;54.022;10.760;2022-08-16T03:35:47;9.25;;;8.25;;
30515;SDS011;17297;54.022;10.760;2022-08-16T03:38:23;8.73;;;7.60;;
30515;SDS011;17297;54.022;10.760;2022-08-16T03:40:50;7.70;;;6.90;;
30515;SDS011;17297;54.022;10.760;2022-08-16T03:43:17;9.02;;;8.15;;
30515;SDS011;17297;54.022;10.760;2022-08-16T03:45:45;8.95;;;8.07;;
30515;SDS011;17297;54.022;10.760;2022-08-16T03:48:11;11.27;;;7.95;;
30515;SDS011;17297;54.022;10.760;2022-08-16T03:50:36;9.02;;;7.97;;
30515;SDS011;17297;54.022;10.760;2022-08-16T03:53:03;8.20;;;7.40;;
30515;SDS011;17297;54.022;10.760;2022-08-16T03:55:29;9.30;;;8.48;;
30515;SDS011;17297;54.022;10.760;2022-08-16T03:57:55;8.43;;;7.60;;
30515;SDS011;17297;54.022;10.760;2022-08-16T04:00:27;7.85;;;7.05;;
30515;SDS011;17297;54.022;10.760;2022-08-16T04:02:54;8.32;;;7.10;;
30515;SDS011;17297;54.022;10.760;2022-08-16T04:05:21;9.55;;;8.18;;
30515;SDS011;17297;54.022;10.760;2022-08-16T04:08:02;9.13;;;8.13;;
30515;SDS011;17297;54.022;10.760;2022-08-16T04:10:29;8.02;;;7.22;;
30515;SDS011;17297;54.022;10.760;2022-08-16T04:12:55;7.80;;;7.05;;
30515;SDS011;17297;54.022;10.760;2022-08-16T04:15:21;9.23;;;8.15;;
30515;SDS011;17297;54.022;10.760;2022-08-16T04:17:59;7.80;;;7.00;;
30515;SDS011;17297;54.022;10.760;2022-08-16T04:20:25;7.13;;;6.40;;
30515;SDS011;17297;54.022;10.760;2022-08-16T04:22:51;7.18;;;6.45;;
30515;SDS011;17297;54.022;10.760;2022-08-16T04:25:16;8.23;;;7.32;;
30515;SDS011;17297;54.022;10.760;2022-08-16T04:27:42;8.10;;;7.25;;
30515;SDS011;17297;54.022;10.760;2022-08-16T04:30:12;9.40;;;7.93;;
30515;SDS011;17297;54.022;10.760;2022-08-16T04:32:45;7.68;;;6.80;;
30515;SDS011;17297;54.022;10.760;2022-08-16T04:35:13;9.15;;;7.88;;
30515;SDS011;17297;54.022;10.760;2022-08-16T04:37:45;7.97;;;7.18;;
30515;SDS011;17297;54.022;10.760;2022-08-16T04:40:21;10.85;;;8.75;;
30515;SDS011;17297;54.022;10.760;2022-08-16T04:42:48;8.40;;;7.20;;
30515;SDS011;17297;54.022;10.760;2022-08-16T04:45:15;9.23;;;8.32;;
30515;SDS011;17297;54.022;10.760;2022-08-16T04:47:42;9.10;;;8.20;;
30515;SDS011;17297;54.022;10.760;2022-08-16T04:50:16;8.13;;;7.32;;
30515;SDS011;17297;54.022;10.760;2022-08-16T04:53:15;8.32;;;7.47;;
30515;SDS011;17297;54.022;10.760;2022-08-16T04:55:43;8.77;;;7.78;;
30515;SDS011;17297;54.022;10.760;2022-08-16T04:58:09;10.00;;;8.95;;
30515;SDS011;17297;54.022;10.760;2022-08-16T05:00:35;9.05;;;7.60;;
30515;SDS011;17297;54.022;10.760;2022-08-16T05:03:08;9.55;;;8.50;;
30515;SDS011;17297;54.022;10.760;2022-08-16T05:05:43;8.80;;;7.82;;
30515;SDS011;17297;54.022;10.760;2022-08-16T05:08:10;8.52;;;7.18;;
30515;SDS011;17297;54.022;10.760;2022-08-16T05:10:39;9.25;;;8.35;;
30515;SDS011;17297;54.022;10.760;2022-08-16T05:13:05;8.63;;;7.72;;
30515;SDS011;17297;54.022;10.760;2022-08-16T05:15:32;8.15;;;7.22;;
30515;SDS011;17297;54.022;10.760;2022-08-16T05:17:59;9.85;;;7.97;;
30515;SDS011;17297;54.022;10.760;2022-08-16T05:20:29;7.78;;;6.97;;
30515;SDS011;17297;54.022;10.760;2022-08-16T05:22:57;8.48;;;7.60;;
30515;SDS011;17297;54.022;10.760;2022-08-16T05:25:23;8.82;;;7.40;;
30515;SDS011;17297;54.022;10.760;2022-08-16T05:27:51;8.02;;;7.22;;
30515;SDS011;17297;54.022;10.760;2022-08-16T05:30:19;8.32;;;7.20;;
30515;SDS011;17297;54.022;10.760;2022-08-16T05:32:44;12.30;;;8.50;;
30515;SDS011;17297;54.022;10.760;2022-08-16T05:35:12;8.30;;;7.38;;
30515;SDS011;17297;54.022;10.760;2022-08-16T05:38:00;8.13;;;7.32;;
30515;SDS011;17297;54.022;10.760;2022-08-16T05:40:30;8.90;;;7.57;;
30515;SDS011;17297;54.022;10.760;2022-08-16T05:42:57;10.90;;;8.30;;
30515;SDS011;17297;54.022;10.760;2022-08-16T05:45:29;9.65;;;8.68;;
30515;SDS011;17297;54.022;10.760;2022-08-16T05:47:58;9.00;;;8.07;;
30515;SDS011;17297;54.022;10.760;2022-08-16T05:50:24;8.90;;;8.00;;
30515;SDS011;17297;54.022;10.760;2022-08-16T05:52:52;8.73;;;7.75;;
30515;SDS011;17297;54.022;10.760;2022-08-16T05:55:26;9.15;;;7.85;;
30515;SDS011;17297;54.022;10.760;2022-08-16T05:57:53;8.65;;;7.78;;
30515;SDS011;17297;54.022;10.760;2022-08-16T06:00:23;9.80;;;8.43;;
30515;SDS011;17297;54.022;10.760;2022-08-16T06:02:52;8.00;;;7.25;;
30515;SDS011;17297;54.022;10.760;2022-08-16T06:05:40;7.53;;;6.75;;
30515;SDS011;17297;54.022;10.760;2022-08-16T06:08:06;9.00;;;8.10;;
30515;SDS011;17297;54.022;10.760;2022-08-16T06:10:40;8.95;;;8.05;;
30515;SDS011;17297;54.022;10.760;2022-08-16T06:13:05;9.55;;;7.97;;
30515;SDS011;17297;54.022;10.760;2022-08-16T06:15:33;8.70;;;7.80;;
30515;SDS011;17297;54.022;10.760;2022-08-16T06:17:59;9.68;;;8.73;;
30515;SDS011;17297;54.022;10.760;2022-08-16T06:20:26;8.60;;;7.50;;
30515;SDS011;17297;54.022;10.760;2022-08-16T06:22:56;9.20;;;8.00;;
30515;SDS011;17297;54.022;10.760;2022-08-16T06:25:24;10.20;;;8.15;;
30515;SDS011;17297;54.022;10.760;2022-08-16T06:27:51;10.23;;;8.57;;
30515;SDS011;17297;54.022;10.760;2022-08-16T06:30:18;8.30;;;7.03;;
30515;SDS011;17297;54.022;10.760;2022-08-16T06:32:43;10.30;;;8.38;;
30515;SDS011;17297;54.022;10.760;2022-08-16T06:35:09;8.77;;;7.97;;
30515;SDS011;17297;54.022;10.760;2022-08-16T06:37:36;8.07;;;7.25;;
30515;SDS011;17297;54.022;10.760;2022-08-16T06:40:07;12.20;;;9.52;;
30515;SDS011;17297;54.022;10.760;2022-08-16T06:42:39;9.55;;;8.52;;
30515;SDS011;17297;54.022;10.760;2022-08-16T06:45:28;8.98;;;7.88;;
30515;SDS011;17297;54.022;10.760;2022-08-16T06:48:10;8.95;;;7.97;;
30515;SDS011;17297;54.022;10.760;2022-08-16T06:50:39;9.27;;;8.38;;
30515;SDS011;17297;54.022;10.760;2022-08-16T06:53:07;10.48;;;8.07;;
30515;SDS011;17297;54.022;10.760;2022-08-16T06:55:34;11.18;;;10.02;;
30515;SDS011;17297;54.022;10.760;2022-08-16T06:58:04;9.25;;;8.32;;
30515;SDS011;17297;54.022;10.760;2022-08-16T07:00:29;9.32;;;7.93;;
30515;SDS011;17297;54.022;10.760;2022-08-16T07:03:00;9.85;;;8.85;;
30515;SDS011;17297;54.022;10.760;2022-08-16T07:05:26;9.75;;;8.68;;
30515;SDS011;17297;54.022;10.760;2022-08-16T07:08:07;10.85;;;8.85;;
30515;SDS011;17297;54.022;10.760;2022-08-16T07:10:36;9.63;;;8.40;;
30515;SDS011;17297;54.022;10.760;2022-08-16T07:13:02;10.25;;;9.00;;
30515;SDS011;17297;54.022;10.760;2022-08-16T07:15:28;9.73;;;8.60;;
30515;SDS011;17297;54.022;10.760;2022-08-16T07:17:54;9.50;;;8.00;;
30515;SDS011;17297;54.022;10.760;2022-08-16T07:20:19;12.10;;;8.82;;
30515;SDS011;17297;54.022;10.760;2022-08-16T07:22:53;9.60;;;8.60;;
30515;SDS011;17297;54.022;10.760;2022-08-16T07:25:25;9.18;;;8.02;;
30515;SDS011;17297;54.022;10.760;2022-08-16T07:27:50;9.82;;;8.57;;
30515;SDS011;17297;54.022;10.760;2022-08-16T07:30:19;9.93;;;8.90;;
30515;SDS011;17297;54.022;10.760;2022-08-16T07:32:45;9.88;;;8.70;;
30515;SDS011;17297;54.022;10.760;2022-08-16T07:35:11;10.68;;;9.68;;
30515;SDS011;17297;54.022;10.760;2022-08-16T07:37:36;11.15;;;9.30;;
30515;SDS011;17297;54.022;10.760;2022-08-16T07:40:13;9.93;;;8.93;;
30515;SDS011;17297;54.022;10.760;2022-08-16T07:42:42;9.02;;;7.63;;
30515;SDS011;17297;54.022;10.760;2022-08-16T07:45:07;8.88;;;7.97;;
30515;SDS011;17297;54.022;10.760;2022-08-16T07:47:33;9.88;;;8.63;;
30515;SDS011;17297;54.022;10.760;2022-08-16T07:49:59;10.82;;;9.27;;
30515;SDS011;17297;54.022;10.760;2022-08-16T07:52:28;10.13;;;8.73;;
30515;SDS011;17297;54.022;10.760;2022-08-16T07:54:53;11.50;;;10.30;;
30515;SDS011;17297;54.022;10.760;2022-08-16T07:57:21;10.35;;;9.25;;
30515;SDS011;17297;54.022;10.760;2022-08-16T07:59:47;9.65;;;8.73;;
30515;SDS011;17297;54.022;10.760;2022-08-16T08:02:14;10.50;;;8.25;;
30515;SDS011;17297;54.022;10.760;2022-08-16T08:04:41;9.25;;;7.82;;
30515;SDS011;17297;54.022;10.760;2022-08-16T08:07:06;9.93;;;8.93;;
30515;SDS011;17297;54.022;10.760;2022-08-16T08:09:32;9.93;;;8.95;;
30515;SDS011;17297;54.022;10.760;2022-08-16T08:11:58;9.73;;;8.75;;
30515;SDS011;17297;54.022;10.760;2022-08-16T08:14:24;9.98;;;8.27;;
30515;SDS011;17297;54.022;10.760;2022-08-16T08:16:50;9.43;;;7.95;;
30515;SDS011;17297;54.022;10.760;2022-08-16T08:19:23;9.57;;;8.57;;
30515;SDS011;17297;54.022;10.760;2022-08-16T08:21:51;8.98;;;7.75;;
30515;SDS011;17297;54.022;10.760;2022-08-16T08:24:18;8.85;;;7.40;;
30515;SDS011;17297;54.022;10.760;2022-08-16T08:26:45;9.93;;;8.90;;
30515;SDS011;17297;54.022;10.760;2022-08-16T08:29:10;8.50;;;7.63;;
30515;SDS011;17297;54.022;10.760;2022-08-16T08:31:36;8.85;;;7.95;;
30515;SDS011;17297;54.022;10.760;2022-08-16T08:34:03;7.85;;;7.07;;
30515;SDS011;17297;54.022;10.760;2022-08-16T08:36:30;7.38;;;6.43;;
30515;SDS011;17297;54.022;10.760;2022-08-16T08:38:57;8.48;;;7.57;;
30515;SDS011;17297;54.022;10.760;2022-08-16T08:41:24;7.60;;;6.82;;
30515;SDS011;17297;54.022;10.760;2022-08-16T08:43:54;7.88;;;7.07;;
30515;SDS011;17297;54.022;10.760;2022-08-16T08:46:24;9.27;;;8.38;;
30515;SDS011;17297;54.022;10.760;2022-08-16T08:48:52;8.48;;;7.60;;
30515;SDS011;17297;54.022;10.760;2022-08-16T08:51:19;8.00;;;7.22;;
30515;SDS011;17297;54.022;10.760;2022-08-16T08:53:54;8.65;;;6.72;;
30515;SDS011;17297;54.022;10.760;2022-08-16T08:56:20;7.75;;;6.95;;
30515;SDS011;17297;54.022;10.760;2022-08-16T08:58:46;8.02;;;7.30;;
30515;SDS011;17297;54.022;10.760;2022-08-16T09:01:27;7.13;;;6.43;;
30515;SDS011;17297;54.022;10.760;2022-08-16T09:03:55;7.35;;;6.68;;
30515;SDS011;17297;54.022;10.760;2022-08-16T09:06:20;7.38;;;5.75;;
30515;SDS011;17297;54.022;10.760;2022-08-16T09:08:46;6.35;;;5.78;;
30515;SDS011;17297;54.022;10.760;2022-08-16T09:11:12;5.80;;;5.20;;
30515;SDS011;17297;54.022;10.760;2022-08-16T09:13:38;6.30;;;5.68;;
30515;SDS011;17297;54.022;10.760;2022-08-16T09:16:05;6.70;;;5.75;;
30515;SDS011;17297;54.022;10.760;2022-08-16T09:18:33;6.38;;;4.70;;
30515;SDS011;17297;54.022;10.760;2022-08-16T09:20:58;5.72;;;5.20;;
30515;SDS011;17297;54.022;10.760;2022-08-16T09:23:24;5.97;;;5.47;;
30515;SDS011;17297;54.022;10.760;2022-08-16T09:25:51;5.88;;;4.70;;
30515;SDS011;17297;54.022;10.760;2022-08-16T09:28:17;6.53;;;5.35;;
30515;SDS011;17297;54.022;10.760;2022-08-16T09:30:47;5.15;;;4.65;;
30515;SDS011;17297;54.022;10.760;2022-08-16T09:33:14;5.18;;;4.47;;
30515;SDS011;17297;54.022;10.760;2022-08-16T09:35:42;5.97;;;5.38;;
30515;SDS011;17297;54.022;10.760;2022-08-16T09:38:08;4.50;;;4.10;;
30515;SDS011;17297;54.022;10.760;2022-08-16T09:40:36;5.15;;;4.50;;
30515;SDS011;17297;54.022;10.760;2022-08-16T09:43:01;4.43;;;3.95;;
30515;SDS011;17297;54.022;10.760;2022-08-16T09:45:28;4.20;;;3.75;;
30515;SDS011;17297;54.022;10.760;2022-08-16T09:47:55;5.15;;;4.22;;
30515;SDS011;17297;54.022;10.760;2022-08-16T09:50:20;4.70;;;4.10;;
30515;SDS011;17297;54.022;10.760;2022-08-16T09:52:47;4.75;;;4.30;;
30515;SDS011;17297;54.022;10.760;2022-08-16T09:55:12;4.22;;;3.83;;
30515;SDS011;17297;54.022;10.760;2022-08-16T09:57:38;4.80;;;4.35;;
30515;SDS011;17297;54.022;10.760;2022-08-16T10:00:07;4.93;;;4.53;;
30515;SDS011;17297;54.022;10.760;2022-08-16T10:02:37;4.88;;;4.35;;
30515;SDS011;17297;54.022;10.760;2022-08-16T10:05:05;4.95;;;4.45;;
30515;SDS011;17297;54.022;10.760;2022-08-16T10:07:31;4.18;;;3.78;;
30515;SDS011;17297;54.022;10.760;2022-08-16T10:09:57;4.65;;;4.25;;
30515;SDS011;17297;54.022;10.760;2022-08-16T10:12:24;4.55;;;4.15;;
30515;SDS011;17297;54.022;10.760;2022-08-16T10:15:12;4.32;;;3.92;;
30515;SDS011;17297;54.022;10.760;2022-08-16T10:17:40;5.55;;;4.80;;
30515;SDS011;17297;54.022;10.760;2022-08-16T10:20:07;4.15;;;3.75;;
30515;SDS011;17297;54.022;10.760;2022-08-16T10:22:35;4.28;;;3.95;;
30515;SDS011;17297;54.022;10.760;2022-08-16T10:25:02;4.20;;;3.80;;
30515;SDS011;17297;54.022;10.760;2022-08-16T10:27:32;4.68;;;4.28;;
30515;SDS011;17297;54.022;10.760;2022-08-16T10:29:59;3.85;;;3.55;;
30515;SDS011;17297;54.022;10.760;2022-08-16T10:32:26;3.97;;;3.60;;
30515;SDS011;17297;54.022;10.760;2022-08-16T10:34:52;4.93;;;3.90;;
30515;SDS011;17297;54.022;10.760;2022-08-16T10:37:17;4.75;;;3.58;;
30515;SDS011;17297;54.022;10.760;2022-08-16T10:39:42;4.63;;;4.22;;
30515;SDS011;17297;54.022;10.760;2022-08-16T10:42:08;5.63;;;4.43;;
30515;SDS011;17297;54.022;10.760;2022-08-16T10:44:35;4.22;;;3.90;;
30515;SDS011;17297;54.022;10.760;2022-08-16T10:47:00;4.65;;;4.18;;
30515;SDS011;17297;54.022;10.760;2022-08-16T10:49:26;4.63;;;4.07;;
30515;SDS011;17297;54.022;10.760;2022-08-16T10:51:54;5.15;;;4.72;;
30515;SDS011;17297;54.022;10.760;2022-08-16T10:54:20;4.15;;;3.75;;
30515;SDS011;17297;54.022;10.760;2022-08-16T10:56:51;4.85;;;4.45;;
30515;SDS011;17297;54.022;10.760;2022-08-16T10:59:20;5.15;;;4.35;;
30515;SDS011;17297;54.022;10.760;2022-08-16T11:01:46;5.63;;;4.32;;
30515;SDS011;17297;54.022;10.760;2022-08-16T11:04:12;4.78;;;3.90;;
30515;SDS011;17297;54.022;10.760;2022-08-16T11:06:39;4.72;;;4.32;;
30515;SDS011;17297;54.022;10.760;2022-08-16T11:09:05;5.40;;;4.50;;
30515;SDS011;17297;54.022;10.760;2022-08-16T11:11:31;6.90;;;4.68;;
30515;SDS011;17297;54.022;10.760;2022-08-16T11:13:56;3.92;;;3.60;;
30515;SDS011;17297;54.022;10.760;2022-08-16T11:16:22;3.85;;;3.55;;
30515;SDS011;17297;54.022;10.760;2022-08-16T11:18:47;4.32;;;3.88;;
30515;SDS011;17297;54.022;10.760;2022-08-16T11:21:13;5.35;;;4.47;;
30515;SDS011;17297;54.022;10.760;2022-08-16T11:23:39;4.18;;;3.88;;
30515;SDS011;17297;54.022;10.760;2022-08-16T11:26:05;5.50;;;4.82;;
30515;SDS011;17297;54.022;10.760;2022-08-16T11:28:32;4.32;;;3.97;;
30515;SDS011;17297;54.022;10.760;2022-08-16T11:30:58;4.40;;;4.05;;
30515;SDS011;17297;54.022;10.760;2022-08-16T11:33:24;4.60;;;4.20;;
30515;SDS011;17297;54.022;10.760;2022-08-16T11:35:49;4.72;;;4.32;;
30515;SDS011;17297;54.022;10.760;2022-08-16T11:38:16;5.60;;;4.45;;
30515;SDS011;17297;54.022;10.760;2022-08-16T11:40:45;4.60;;;4.20;;
30515;SDS011;17297;54.022;10.760;2022-08-16T11:43:17;4.30;;;4.00;;
30515;SDS011;17297;54.022;10.760;2022-08-16T11:45:46;4.10;;;3.80;;
30515;SDS011;17297;54.022;10.760;2022-08-16T11:48:13;4.15;;;3.85;;
30515;SDS011;17297;54.022;10.760;2022-08-16T11:50:39;4.32;;;3.92;;
30515;SDS011;17297;54.022;10.760;2022-08-16T11:53:05;4.10;;;3.70;;
30515;SDS011;17297;54.022;10.760;2022-08-16T11:55:33;3.67;;;3.38;;
30515;SDS011;17297;54.022;10.760;2022-08-16T11:58:00;4.82;;;4.38;;
30515;SDS011;17297;54.022;10.760;2022-08-16T12:00:26;4.88;;;4.15;;
30515;SDS011;17297;54.022;10.760;2022-08-16T12:02:53;4.90;;;4.43;;
30515;SDS011;17297;54.022;10.760;2022-08-16T12:05:19;4.72;;;3.88;;
30515;SDS011;17297;54.022;10.760;2022-08-16T12:07:45;4.20;;;3.90;;
30515;SDS011;17297;54.022;10.760;2022-08-16T12:10:14;4.57;;;4.18;;
30515;SDS011;17297;54.022;10.760;2022-08-16T12:12:41;3.92;;;3.58;;
30515;SDS011;17297;54.022;10.760;2022-08-16T12:15:08;4.30;;;4.00;;
30515;SDS011;17297;54.022;10.760;2022-08-16T12:17:35;4.18;;;3.85;;
30515;SDS011;17297;54.022;10.760;2022-08-16T12:20:09;4.00;;;3.70;;
30515;SDS011;17297;54.022;10.760;2022-08-16T12:22:41;5.80;;;5.35;;
30515;SDS011;17297;54.022;10.760;2022-08-16T12:25:07;4.25;;;3.88;;
30515;SDS011;17297;54.022;10.760;2022-08-16T12:27:35;3.58;;;3.28;;
30515;SDS011;17297;54.022;10.760;2022-08-16T12:30:02;6.95;;;4.43;;
30515;SDS011;17297;54.022;10.760;2022-08-16T12:32:29;5.32;;;4.22;;
30515;SDS011;17297;54.022;10.760;2022-08-16T12:34:54;4.32;;;3.92;;
30515;SDS011;17297;54.022;10.760;2022-08-16T12:37:20;5.35;;;3.90;;
30515;SDS011;17297;54.022;10.760;2022-08-16T12:39:46;3.67;;;3.30;;
30515;SDS011;17297;54.022;10.760;2022-08-16T12:42:12;6.63;;;4.00;;
30515;SDS011;17297;54.022;10.760;2022-08-16T12:44:37;4.70;;;4.30;;
30515;SDS011;17297;54.022;10.760;2022-08-16T12:47:06;4.40;;;3.58;;
30515;SDS011;17297;54.022;10.760;2022-08-16T12:49:52;3.47;;;3.22;;
30515;SDS011;17297;54.022;10.760;2022-08-16T12:52:18;4.22;;;3.83;;
30515;SDS011;17297;54.022;10.760;2022-08-16T12:54:44;5.43;;;3.85;;
30515;SDS011;17297;54.022;10.760;2022-08-16T12:57:10;4.55;;;3.80;;
30515;SDS011;17297;54.022;10.760;2022-08-16T12:59:36;4.70;;;3.85;;
30515;SDS011;17297;54.022;10.760;2022-08-16T13:02:03;3.95;;;3.55;;
30515;SDS011;17297;54.022;10.760;2022-08-16T13:04:30;4.38;;;3.97;;
30515;SDS011;17297;54.022;10.760;2022-08-16T13:07:02;6.55;;;5.35;;
30515;SDS011;17297;54.022;10.760;2022-08-16T13:09:28;7.07;;;4.80;;
30515;SDS011;17297;54.022;10.760;2022-08-16T13:11:58;4.10;;;3.80;;
30515;SDS011;17297;54.022;10.760;2022-08-16T13:14:43;4.20;;;3.88;;
30515;SDS011;17297;54.022;10.760;2022-08-16T13:17:11;4.45;;;4.05;;
30515;SDS011;17297;54.022;10.760;2022-08-16T13:19:39;4.13;;;3.83;;
30515;SDS011;17297;54.022;10.760;2022-08-16T13:22:05;4.25;;;3.85;;
30515;SDS011;17297;54.022;10.760;2022-08-16T13:24:31;4.38;;;4.03;;
30515;SDS011;17297;54.022;10.760;2022-08-16T13:26:56;4.65;;;4.25;;
30515;SDS011;17297;54.022;10.760;2022-08-16T13:29:22;4.20;;;3.80;;
30515;SDS011;17297;54.022;10.760;2022-08-16T13:31:48;5.35;;;4.53;;
30515;SDS011;17297;54.022;10.760;2022-08-16T13:34:13;3.83;;;3.40;;
30515;SDS011;17297;54.022;10.760;2022-08-16T13:36:40;5.10;;;4.10;;
30515;SDS011;17297;54.022;10.760;2022-08-16T13:39:06;3.80;;;3.50;;
30515;SDS011;17297;54.022;10.760;2022-08-16T13:41:34;4.03;;;3.65;;
30515;SDS011;17297;54.022;10.760;2022-08-16T13:44:00;6.35;;;4.43;;
30515;SDS011;17297;54.022;10.760;2022-08-16T13:46:27;3.60;;;3.25;;
30515;SDS011;17297;54.022;10.760;2022-08-16T13:48:54;7.18;;;3.95;;
30515;SDS011;17297;54.022;10.760;2022-08-16T13:51:20;3.72;;;3.40;;
30515;SDS011;17297;54.022;10.760;2022-08-16T13:53:50;3.58;;;3.38;;
30515;SDS011;17297;54.022;10.760;2022-08-16T13:56:18;3.97;;;3.58;;
30515;SDS011;17297;54.022;10.760;2022-08-16T13:58:43;5.60;;;3.42;;
30515;SDS011;17297;54.022;10.760;2022-08-16T14:01:09;3.92;;;3.63;;
30515;SDS011;17297;54.022;10.760;2022-08-16T14:03:38;4.10;;;3.80;;
30515;SDS011;17297;54.022;10.760;2022-08-16T14:06:05;3.92;;;3.53;;
30515;SDS011;17297;54.022;10.760;2022-08-16T14:08:32;4.25;;;3.85;;
30515;SDS011;17297;54.022;10.760;2022-08-16T14:10:58;3.60;;;3.30;;
30515;SDS011;17297;54.022;10.760;2022-08-16T14:13:23;4.20;;;3.80;;
30515;SDS011;17297;54.022;10.760;2022-08-16T14:15:49;3.90;;;3.60;;
30515;SDS011;17297;54.022;10.760;2022-08-16T14:18:16;5.03;;;3.90;;
30515;SDS011;17297;54.022;10.760;2022-08-16T14:20:41;4.13;;;3.75;;
30515;SDS011;17297;54.022;10.760;2022-08-16T14:23:07;3.80;;;3.50;;
30515;SDS011;17297;54.022;10.760;2022-08-16T14:25:33;4.00;;;3.58;;
30515;SDS011;17297;54.022;10.760;2022-08-16T14:27:59;6.50;;;4.60;;
30515;SDS011;17297;54.022;10.760;2022-08-16T14:30:25;4.68;;;4.38;;
30515;SDS011;17297;54.022;10.760;2022-08-16T14:32:51;3.88;;;3.58;;
30515;SDS011;17297;54.022;10.760;2022-08-16T14:35:25;5.50;;;4.97;;
30515;SDS011;17297;54.022;10.760;2022-08-16T14:37:52;3.80;;;3.50;;